MAPA DE AEROPUERTO

INFORMACIÓN METAR y TAF

METAR FOR LOWI
ADDS - METARS form results

(1258 UTC 26 February 2021)
Data provider http://aviationweather.gov/metar/data/
 
METAR text: LOWI 261250Z VRB03KT CAVOK 16/M03 Q1028 NOSIG
Conditions at: LOWI (INNSBRUCK AIRPOR, AT) observed 1250 UTC 26 February 2021
Temperature: 16.0°C (61°F)
Dewpoint: -3.0°C (27°F) [RH = 27%]
Pressure (altimeter): 30.35 inches Hg (1028.0 mb)
Winds: variable direction winds at 3 MPH (3 knots; 1.5 m/s)
Visibility: 6 or more miles (10+ km)
Ceiling: ceiling and visibility are OK
Clouds: unknown
Weather: no significant weather observed at this time

METAR text: LOWI 261220Z 25003KT 210V290 CAVOK 15/M04 Q1028 NOSIG
Conditions at: LOWI (INNSBRUCK AIRPOR, AT) observed 1220 UTC 26 February 2021
Temperature: 15.0°C (59°F)
Dewpoint: -4.0°C (25°F) [RH = 27%]
Pressure (altimeter): 30.35 inches Hg (1028.0 mb)
Winds: from the WSW (250 degrees) at 3 MPH (3 knots; 1.5 m/s)
Visibility: 6 or more miles (10+ km)
Ceiling: ceiling and visibility are OK
Clouds: unknown
Weather: no significant weather observed at this time

Forecast for: LOWI (INNSBRUCK AIRPOR, AT)
Text: TAF LOWI 261115Z 2612/2712 VRB03KT CAVOK TX18/2615Z TN03/2706Z
Forecast period: 1200 UTC 26 February 2021 to 0800 UTC 27 February 2021
Forecast type: FROM: standard forecast or significant change
Winds: variable direction winds at 3 MPH (3 knots; 1.5 m/s)
Visibility: 6 or more miles (10+ km)
Ceiling: unknown
Clouds: missing
Weather: no significant weather forecast for this period
Text: TEMPO 2700/2710 27012KT 8000 -SHRA
Forecast period: 0000 to 1000 UTC 27 February 2021
Forecast type: TEMPORARY: The following changes expected for less than half the time period
Winds: from the W (270 degrees) at 14 MPH (12 knots; 6.2 m/s)
Visibility: 5 miles (8 km)
Ceiling: unknown
Clouds: missing
Weather: -SHRA  (light rain showers)
Text: BECMG 2708/2710 08008KT
Forecast period: 0800 to 1200 UTC 27 February 2021
Forecast type: BECOMING: Conditions expected to become as follows by 1000 UTC 27 February 2021
Winds: from the E (80 degrees) at 9 MPH (8 knots; 4.1 m/s)
Visibility: 6 or more miles (10+ km)
Ceiling: unknown
Clouds: missing
Weather: no significant weather forecast for this period